createdAt,value
2018-10-17T00:00:41.031Z,9.20
2018-10-17T00:03:10.718Z,9.20
2018-10-17T00:05:40.334Z,9.10
2018-10-17T00:08:09.980Z,9.20
2018-10-17T00:10:39.640Z,9.10
2018-10-17T00:13:09.368Z,9.10
2018-10-17T00:15:38.958Z,9.10
2018-10-17T00:18:08.671Z,9.10
2018-10-17T00:20:38.294Z,9.00
2018-10-17T00:23:07.954Z,9.10
2018-10-17T00:25:37.622Z,9.10
2018-10-17T00:28:07.257Z,9.00
2018-10-17T00:30:36.907Z,9.00
2018-10-17T00:33:06.562Z,9.00
2018-10-17T00:35:36.188Z,9.00
2018-10-17T00:38:05.861Z,9.00
2018-10-17T00:40:35.635Z,9.00
2018-10-17T00:43:05.251Z,8.90
2018-10-17T00:45:34.867Z,8.90
2018-10-17T00:48:04.541Z,8.90
2018-10-17T00:50:34.187Z,8.90
2018-10-17T00:53:03.856Z,8.90
2018-10-17T00:55:33.524Z,8.80
2018-10-17T00:58:03.223Z,8.80
2018-10-17T01:00:32.866Z,8.80
2018-10-17T01:03:02.486Z,8.80
2018-10-17T01:05:32.094Z,8.80
2018-10-17T01:08:01.757Z,8.70
2018-10-17T01:10:31.374Z,8.70
2018-10-17T01:13:01.050Z,8.70
2018-10-17T01:15:30.694Z,8.70
2018-10-17T01:18:00.330Z,8.70
2018-10-17T01:20:29.950Z,8.70
2018-10-17T01:22:59.669Z,8.70
2018-10-17T01:25:29.275Z,8.60
2018-10-17T01:27:58.899Z,8.60
2018-10-17T01:30:28.520Z,8.60
2018-10-17T01:32:58.170Z,8.60
2018-10-17T01:35:27.863Z,8.60
2018-10-17T01:37:57.492Z,8.60
2018-10-17T01:40:27.138Z,8.60
2018-10-17T01:42:56.833Z,8.60
2018-10-17T01:45:26.439Z,8.60
2018-10-17T01:47:56.109Z,8.60
2018-10-17T01:50:25.726Z,8.60
2018-10-17T01:52:55.392Z,8.60
2018-10-17T01:55:25.009Z,8.60
2018-10-17T01:57:54.613Z,8.60
2018-10-17T02:00:24.374Z,8.60
2018-10-17T02:02:54.309Z,8.50
2018-10-17T02:05:23.910Z,8.50
2018-10-17T02:07:53.518Z,8.50
2018-10-17T02:10:23.138Z,8.50
2018-10-17T02:12:52.784Z,8.50
2018-10-17T02:15:22.519Z,8.40
2018-10-17T02:17:52.175Z,8.40
2018-10-17T02:20:21.810Z,8.40
2018-10-17T02:22:51.454Z,8.40
2018-10-17T02:25:21.072Z,8.30
2018-10-17T02:27:50.675Z,8.30
2018-10-17T02:30:20.303Z,8.30
2018-10-17T02:32:49.962Z,8.30
2018-10-17T02:35:19.972Z,8.20
2018-10-17T02:37:49.594Z,8.20
2018-10-17T02:40:19.226Z,8.20
2018-10-17T02:42:48.871Z,8.20
2018-10-17T02:45:18.515Z,8.20
2018-10-17T02:47:48.174Z,8.20
2018-10-17T02:50:17.811Z,8.20
2018-10-17T02:52:47.472Z,8.10
2018-10-17T02:55:17.074Z,8.20
2018-10-17T02:57:46.694Z,8.10
2018-10-17T03:00:16.359Z,8.10
2018-10-17T03:02:46.010Z,8.10
2018-10-17T03:05:15.687Z,8.10
2018-10-17T03:07:45.341Z,8.10
2018-10-17T03:10:14.993Z,8.10
2018-10-17T03:12:44.599Z,8.10
2018-10-17T03:15:14.197Z,8.10
2018-10-17T03:17:43.823Z,8.10
2018-10-17T03:20:13.479Z,8.10
2018-10-17T03:22:43.129Z,8.10
2018-10-17T03:25:12.820Z,8.10
2018-10-17T03:27:42.453Z,8.00
2018-10-17T03:30:12.063Z,8.00
2018-10-17T03:32:41.684Z,8.00
2018-10-17T03:35:11.404Z,8.00
2018-10-17T03:37:40.969Z,8.00
2018-10-17T03:40:10.600Z,8.10
2018-10-17T03:42:40.228Z,8.10
2018-10-17T03:45:09.913Z,8.00
2018-10-17T03:47:39.512Z,8.00
2018-10-17T03:50:09.148Z,8.00
2018-10-17T03:52:38.756Z,8.00
2018-10-17T03:55:08.483Z,8.00
2018-10-17T03:57:38.043Z,8.00
2018-10-17T04:00:08.373Z,8.00
2018-10-17T04:05:08.527Z,8.00
2018-10-17T04:07:38.084Z,8.00
2018-10-17T04:10:07.797Z,8.00
2018-10-17T04:12:37.403Z,8.00
2018-10-17T04:15:07.455Z,7.90
2018-10-17T04:17:37.081Z,7.90
2018-10-17T04:20:06.730Z,7.90
2018-10-17T04:22:36.395Z,7.90
2018-10-17T04:25:06.426Z,7.90
2018-10-17T04:27:36.019Z,7.90
2018-10-17T04:30:06.379Z,7.90
2018-10-17T04:32:35.994Z,7.90
2018-10-17T04:35:05.845Z,7.90
2018-10-17T04:37:35.476Z,7.90
2018-10-17T04:40:05.154Z,7.90
2018-10-17T04:42:34.749Z,7.90
2018-10-17T04:45:04.807Z,7.90
2018-10-17T04:47:34.491Z,7.90
2018-10-17T04:50:04.155Z,7.90
2018-10-17T04:52:33.774Z,7.80
2018-10-17T04:55:03.478Z,7.90
2018-10-17T04:57:33.090Z,7.90
2018-10-17T05:00:02.736Z,7.90
2018-10-17T05:02:32.330Z,7.90
2018-10-17T05:05:01.991Z,7.90
2018-10-17T05:07:31.621Z,7.90
2018-10-17T05:10:01.256Z,7.90
2018-10-17T05:12:30.852Z,7.90
2018-10-17T05:15:00.603Z,7.90
2018-10-17T05:17:30.200Z,7.90
2018-10-17T05:19:59.821Z,7.90
2018-10-17T05:22:29.425Z,7.80
2018-10-17T05:24:59.085Z,7.80
2018-10-17T05:27:28.748Z,7.80
2018-10-17T05:29:58.443Z,7.80
2018-10-17T05:32:28.051Z,7.80
2018-10-17T05:34:57.656Z,7.80
2018-10-17T05:37:27.429Z,7.80
2018-10-17T05:39:57.017Z,7.80
2018-10-17T05:42:26.651Z,7.80
2018-10-17T05:44:56.403Z,7.80
2018-10-17T05:47:26.022Z,7.80
2018-10-17T05:49:55.708Z,7.80
2018-10-17T05:52:25.312Z,7.80
2018-10-17T05:54:54.953Z,7.90
2018-10-17T05:57:24.663Z,7.90
2018-10-17T05:59:54.338Z,8.00
2018-10-17T06:02:26.598Z,8.10
2018-10-17T06:04:56.621Z,8.10
2018-10-17T06:07:26.223Z,8.20
2018-10-17T06:09:55.943Z,8.30
2018-10-17T06:12:25.624Z,8.40
2018-10-17T06:14:55.323Z,8.50
2018-10-17T06:17:25.004Z,8.60
2018-10-17T06:19:54.636Z,8.60
2018-10-17T06:22:24.247Z,8.70
2018-10-17T06:24:53.855Z,8.80
2018-10-17T06:27:23.497Z,8.90
2018-10-17T06:29:53.126Z,9.00
2018-10-17T06:32:22.730Z,9.10
2018-10-17T06:34:52.471Z,9.20
2018-10-17T06:37:22.079Z,9.30
2018-10-17T06:39:51.709Z,9.50
2018-10-17T06:42:21.311Z,9.60
2018-10-17T06:44:50.927Z,9.70
2018-10-17T06:47:20.737Z,9.80
2018-10-17T06:49:50.192Z,9.90
2018-10-17T06:52:19.902Z,10.00
2018-10-17T06:54:49.687Z,10.20
2018-10-17T06:57:19.322Z,10.30
2018-10-17T06:59:48.953Z,10.40
2018-10-17T07:02:19.117Z,10.50
2018-10-17T07:04:48.742Z,10.60
2018-10-17T07:07:18.464Z,10.70
2018-10-17T07:09:48.154Z,10.80
2018-10-17T07:12:17.793Z,10.90
2018-10-17T07:14:47.408Z,11.00
2018-10-17T07:17:17.130Z,11.10
2018-10-17T07:19:46.704Z,11.20
2018-10-17T07:22:16.402Z,11.30
2018-10-17T07:24:46.028Z,11.40
2018-10-17T07:27:15.644Z,11.50
2018-10-17T07:29:45.454Z,11.60
2018-10-17T07:32:14.944Z,11.70
2018-10-17T07:34:44.574Z,11.70
2018-10-17T07:37:14.188Z,11.70
2018-10-17T07:39:43.815Z,11.70
2018-10-17T07:42:13.502Z,11.80
2018-10-17T07:44:44.260Z,11.90
2018-10-17T07:47:13.868Z,12.00
2018-10-17T07:49:43.500Z,12.10
2018-10-17T07:52:13.109Z,12.20
2018-10-17T07:54:42.722Z,12.30
2018-10-17T07:57:12.333Z,12.40
2018-10-17T07:59:41.956Z,12.40
2018-10-17T08:02:11.622Z,12.60
2018-10-17T08:04:41.267Z,12.70
2018-10-17T08:07:10.868Z,12.80
2018-10-17T08:09:40.681Z,13.00
2018-10-17T08:12:10.390Z,13.20
2018-10-17T08:14:41.740Z,13.40
2018-10-17T08:17:12.136Z,13.60
2018-10-17T08:19:41.805Z,13.80
2018-10-17T08:22:11.401Z,13.90
2018-10-17T08:24:41.035Z,14.00
2018-10-17T08:27:10.962Z,14.20
2018-10-17T08:29:40.588Z,14.30
2018-10-17T08:32:10.833Z,14.40
2018-10-17T08:34:40.549Z,14.50
2018-10-17T08:39:42.384Z,14.70
2018-10-17T08:42:11.985Z,14.90
2018-10-17T08:44:41.632Z,15.00
2018-10-17T08:47:11.279Z,15.10
2018-10-17T08:49:40.940Z,15.20
2018-10-17T08:52:10.572Z,15.30
2018-10-17T08:54:40.215Z,15.50
2018-10-17T08:57:09.851Z,15.50
2018-10-17T08:59:39.490Z,15.60
2018-10-17T09:02:09.193Z,15.80
2018-10-17T09:04:38.941Z,15.80
2018-10-17T09:07:08.578Z,16.00
2018-10-17T09:09:38.217Z,16.10
2018-10-17T09:12:07.931Z,16.20
2018-10-17T09:14:37.586Z,16.30
2018-10-17T09:17:07.242Z,16.40
2018-10-17T09:19:37.060Z,16.50
2018-10-17T09:24:46.083Z,16.60
2018-10-17T09:27:15.709Z,16.90
2018-10-17T09:29:45.355Z,17.00
2018-10-17T09:32:15.000Z,17.10
2018-10-17T09:34:44.723Z,17.20
2018-10-17T09:37:14.354Z,17.30
2018-10-17T09:39:43.970Z,17.40
2018-10-17T09:42:13.774Z,17.60
2018-10-17T09:44:43.459Z,17.70
2018-10-17T09:47:13.109Z,17.90
2018-10-17T09:49:42.770Z,18.00
2018-10-17T09:52:12.496Z,18.10
2018-10-17T09:54:42.163Z,18.20
2018-10-17T09:57:11.868Z,18.30
2018-10-17T09:59:41.482Z,18.40
2018-10-17T10:02:11.339Z,18.50
2018-10-17T10:04:41.020Z,18.60
2018-10-17T10:07:10.636Z,18.80
2018-10-17T10:09:40.250Z,19.00
2018-10-17T10:12:09.953Z,19.10
2018-10-17T10:14:39.540Z,19.30
2018-10-17T10:17:09.258Z,19.50
2018-10-17T10:19:38.882Z,19.70
2018-10-17T10:22:08.676Z,19.90
2018-10-17T10:24:38.367Z,20.10
2018-10-17T10:27:08.299Z,20.30
2018-10-17T10:29:37.993Z,20.50
2018-10-17T10:32:07.677Z,20.60
2018-10-17T10:34:37.322Z,20.70
2018-10-17T10:37:07.335Z,20.90
2018-10-17T10:39:38.135Z,21.00
2018-10-17T10:42:08.311Z,21.10
2018-10-17T10:44:37.906Z,21.30
2018-10-17T10:47:07.560Z,21.40
2018-10-17T10:49:37.199Z,21.50
2018-10-17T10:52:07.015Z,21.60
2018-10-17T10:54:36.721Z,21.60
2018-10-17T10:57:06.492Z,21.70
2018-10-17T10:59:36.235Z,21.80
2018-10-17T11:02:05.794Z,22.00
2018-10-17T11:04:35.495Z,22.30
2018-10-17T11:07:05.421Z,22.30
2018-10-17T11:09:35.137Z,22.20
2018-10-17T11:12:04.827Z,22.30
2018-10-17T11:14:34.536Z,22.30
2018-10-17T11:17:04.149Z,22.40
2018-10-17T11:19:33.760Z,22.40
2018-10-17T11:22:03.477Z,22.30
2018-10-17T11:24:33.066Z,22.30
2018-10-17T11:27:02.820Z,22.20
2018-10-17T11:29:32.546Z,22.20
2018-10-17T11:32:02.345Z,22.30
2018-10-17T11:34:31.889Z,22.50
2018-10-17T11:37:01.550Z,22.60
2018-10-17T11:39:31.200Z,22.70
2018-10-17T11:42:00.813Z,22.90
2018-10-17T11:44:30.428Z,22.90
2018-10-17T11:47:00.088Z,22.90
2018-10-17T11:49:29.727Z,22.80
2018-10-17T11:51:59.363Z,22.80
2018-10-17T11:54:28.973Z,22.90
2018-10-17T11:56:58.652Z,23.20
2018-10-17T11:59:28.450Z,23.50
2018-10-17T12:01:58.061Z,23.80
2018-10-17T12:04:27.911Z,23.70
2018-10-17T12:06:57.359Z,23.60
2018-10-17T12:09:26.952Z,23.80
2018-10-17T12:11:56.663Z,25.20
2018-10-17T12:14:26.250Z,27.40
2018-10-17T12:16:55.862Z,29.40
2018-10-17T12:19:25.475Z,31.10
2018-10-17T12:23:24.470Z,32.50
2018-10-17T12:25:54.109Z,33.80
2018-10-17T12:30:55.413Z,35.30
2018-10-17T12:33:25.038Z,36.80
2018-10-17T12:35:54.684Z,37.40
2018-10-17T12:38:24.298Z,38.10
2018-10-17T12:40:54.138Z,38.90
2018-10-17T12:43:23.580Z,39.80
2018-10-17T12:45:53.196Z,40.60
2018-10-17T12:48:22.848Z,41.40
2018-10-17T12:50:52.515Z,42.10
2018-10-17T12:53:22.186Z,42.10
2018-10-17T12:55:51.792Z,42.20
2018-10-17T12:58:21.539Z,42.60
2018-10-17T13:00:51.260Z,43.00
2018-10-17T13:03:20.915Z,42.70
2018-10-17T13:05:50.549Z,42.40
2018-10-17T13:08:20.179Z,41.70
2018-10-17T13:10:49.810Z,41.60
2018-10-17T13:13:24.864Z,41.50
2018-10-17T13:15:54.596Z,41.30
2018-10-17T13:18:24.210Z,41.20
2018-10-17T13:20:53.818Z,41.30
2018-10-17T13:23:23.919Z,41.30
2018-10-17T13:25:53.556Z,41.50
2018-10-17T13:28:23.292Z,41.80
2018-10-17T13:30:52.934Z,41.60
2018-10-17T13:33:22.571Z,41.30
2018-10-17T13:35:52.248Z,41.10
2018-10-17T13:38:21.862Z,40.90
2018-10-17T13:40:51.563Z,40.50
2018-10-17T13:43:21.283Z,40.70
2018-10-17T13:45:50.898Z,40.50
2018-10-17T13:48:20.577Z,40.50
2018-10-17T13:50:50.328Z,40.50
2018-10-17T13:53:19.963Z,40.70
2018-10-17T13:55:49.569Z,40.90
2018-10-17T13:58:19.284Z,41.20
2018-10-17T14:00:48.859Z,41.10
2018-10-17T14:03:18.501Z,41.00
2018-10-17T14:05:48.194Z,41.20
2018-10-17T14:08:17.913Z,40.80
2018-10-17T14:10:47.547Z,40.30
2018-10-17T14:13:17.230Z,39.70
2018-10-17T14:15:46.901Z,39.60
2018-10-17T14:18:16.575Z,39.60
2018-10-17T14:20:46.332Z,39.70
2018-10-17T14:23:15.985Z,39.70
2018-10-17T14:25:45.639Z,39.60
2018-10-17T14:28:15.302Z,39.70
2018-10-17T14:30:44.949Z,39.70
2018-10-17T14:33:14.692Z,39.70
2018-10-17T14:35:44.318Z,39.60
2018-10-17T14:38:13.937Z,39.40
2018-10-17T14:40:43.649Z,39.10
2018-10-17T14:43:13.303Z,38.70
2018-10-17T14:45:43.078Z,38.40
2018-10-17T14:48:12.845Z,38.20
2018-10-17T14:50:42.413Z,37.90
2018-10-17T14:53:12.214Z,37.70
2018-10-17T14:55:41.916Z,37.40
2018-10-17T14:58:11.511Z,37.00
2018-10-17T15:00:41.268Z,36.60
2018-10-17T15:03:10.938Z,36.10
2018-10-17T15:05:40.614Z,35.50
2018-10-17T15:08:10.241Z,34.80
2018-10-17T15:10:39.879Z,34.10
2018-10-17T15:13:09.538Z,32.70
2018-10-17T15:15:44.254Z,31.10
2018-10-17T15:18:14.895Z,29.50
2018-10-17T15:20:44.690Z,28.10
2018-10-17T15:23:17.199Z,26.90
2018-10-17T15:25:46.806Z,25.90
2018-10-17T15:28:16.443Z,25.00
2018-10-17T15:30:46.109Z,24.30
2018-10-17T15:33:15.723Z,23.60
2018-10-17T15:35:45.490Z,23.00
2018-10-17T15:38:15.129Z,22.50
2018-10-17T15:40:44.734Z,22.10
2018-10-17T15:43:14.463Z,21.70
2018-10-17T15:45:44.198Z,21.30
2018-10-17T15:48:13.904Z,20.90
2018-10-17T15:50:43.636Z,20.60
2018-10-17T15:53:13.376Z,20.20
2018-10-17T15:55:43.017Z,19.90
2018-10-17T15:58:12.653Z,19.70
2018-10-17T16:00:53.907Z,19.50
2018-10-17T16:03:25.599Z,19.30
2018-10-17T16:05:55.313Z,19.10
2018-10-17T16:08:27.542Z,18.90
2018-10-17T16:10:57.195Z,18.70
2018-10-17T16:13:26.872Z,18.40
2018-10-17T16:15:56.595Z,18.20
2018-10-17T16:18:26.206Z,18.00
2018-10-17T16:20:55.834Z,17.90
2018-10-17T16:23:25.470Z,17.70
2018-10-17T16:25:55.183Z,17.60
2018-10-17T16:28:24.820Z,17.50
2018-10-17T16:30:54.670Z,17.40
2018-10-17T16:33:24.294Z,17.20
2018-10-17T16:35:53.932Z,17.10
2018-10-17T16:38:23.606Z,16.90
2018-10-17T16:40:53.241Z,16.80
2018-10-17T16:43:22.930Z,16.70
2018-10-17T16:45:52.589Z,16.60
2018-10-17T16:48:22.271Z,16.50
2018-10-17T16:50:52.048Z,16.40
2018-10-17T16:53:21.923Z,16.30
2018-10-17T16:55:51.590Z,16.20
2018-10-17T16:58:21.528Z,16.10
2018-10-17T17:00:51.242Z,16.10
2018-10-17T17:03:21.572Z,16.00
2018-10-17T17:05:51.355Z,15.90
2018-10-17T17:08:20.977Z,15.80
2018-10-17T17:10:50.585Z,15.70
2018-10-17T17:13:20.281Z,15.70
2018-10-17T17:15:50.162Z,15.60
2018-10-17T17:18:20.282Z,15.50
2018-10-17T17:20:49.968Z,15.40
2018-10-17T17:23:19.596Z,15.30
2018-10-17T17:25:49.387Z,15.20
2018-10-17T17:28:19.037Z,15.20
2018-10-17T17:30:48.712Z,15.00
2018-10-17T17:33:18.503Z,15.00
2018-10-17T17:35:48.183Z,14.90
2018-10-17T17:38:17.787Z,14.80
2018-10-17T17:43:13.651Z,14.80
2018-10-17T17:45:43.288Z,14.60
2018-10-17T17:48:12.906Z,14.50
2018-10-17T17:50:42.520Z,14.50
2018-10-17T17:53:12.148Z,14.40
2018-10-17T17:55:41.760Z,14.40
2018-10-17T17:58:11.414Z,14.40
2018-10-17T18:00:41.138Z,14.30
2018-10-17T18:03:10.842Z,14.30
2018-10-17T18:05:40.481Z,14.30
2018-10-17T18:08:10.132Z,14.30
2018-10-17T18:10:39.790Z,14.30
2018-10-17T18:13:09.468Z,14.30
2018-10-17T18:15:39.159Z,14.30
2018-10-17T18:18:08.793Z,14.30
2018-10-17T18:20:38.435Z,14.30
2018-10-17T18:23:08.079Z,14.20
2018-10-17T18:25:37.755Z,14.20
2018-10-17T18:28:07.681Z,14.10
2018-10-17T18:30:37.184Z,14.00
2018-10-17T18:33:06.814Z,14.00
2018-10-17T18:35:36.442Z,14.00
2018-10-17T18:38:06.097Z,14.00
2018-10-17T18:40:35.801Z,14.00
2018-10-17T18:43:05.527Z,14.00
2018-10-17T18:45:35.291Z,13.90
2018-10-17T18:48:04.946Z,13.90
2018-10-17T18:50:34.598Z,13.90
2018-10-17T18:53:04.358Z,13.80
2018-10-17T18:55:34.041Z,13.80
2018-10-17T18:58:03.772Z,13.70
2018-10-17T19:00:33.427Z,13.70
2018-10-17T19:03:03.219Z,13.60
2018-10-17T19:05:32.962Z,13.50
2018-10-17T19:08:02.634Z,13.50
2018-10-17T19:10:32.313Z,13.40
2018-10-17T19:13:01.950Z,13.30
2018-10-17T19:15:31.591Z,13.30
2018-10-17T19:18:01.252Z,13.20
2018-10-17T19:20:30.888Z,13.20
2018-10-17T19:23:00.612Z,13.20
2018-10-17T19:25:30.317Z,13.20
2018-10-17T19:27:59.945Z,13.10
2018-10-17T19:30:29.574Z,13.10
2018-10-17T19:32:59.203Z,13.10
2018-10-17T19:35:28.904Z,13.10
2018-10-17T19:37:58.548Z,13.00
2018-10-17T19:40:28.186Z,13.00
2018-10-17T19:42:57.838Z,13.00
2018-10-17T19:45:27.478Z,12.90
2018-10-17T19:47:57.249Z,13.00
2018-10-17T19:50:26.837Z,12.90
2018-10-17T19:52:56.509Z,12.90
2018-10-17T19:55:26.160Z,13.00
2018-10-17T19:57:55.759Z,13.00
2018-10-17T20:00:25.405Z,12.90
2018-10-17T20:02:55.063Z,12.90
2018-10-17T20:05:24.713Z,12.90
2018-10-17T20:07:55.184Z,12.90
2018-10-17T20:10:24.829Z,12.90
2018-10-17T20:12:54.518Z,12.90
2018-10-17T20:15:24.161Z,12.80
2018-10-17T20:17:53.905Z,12.80
2018-10-17T20:20:23.533Z,12.80
2018-10-17T20:22:53.166Z,12.80
2018-10-17T20:25:22.803Z,12.80
2018-10-17T20:27:52.482Z,12.80
2018-10-17T20:30:22.100Z,12.80
2018-10-17T20:32:51.777Z,12.80
2018-10-17T20:35:21.423Z,12.80
2018-10-17T20:37:51.045Z,12.70
2018-10-17T20:40:20.683Z,12.70
2018-10-17T20:42:50.321Z,12.70
2018-10-17T20:45:20.062Z,12.70
2018-10-17T20:47:49.668Z,12.60
2018-10-17T20:50:19.338Z,12.60
2018-10-17T20:52:48.966Z,12.60
2018-10-17T20:55:18.610Z,12.50
2018-10-17T20:57:48.222Z,12.50
2018-10-17T21:00:17.818Z,12.50
2018-10-17T21:02:47.452Z,12.50
2018-10-17T21:05:17.094Z,12.40
2018-10-17T21:07:46.724Z,12.30
2018-10-17T21:10:16.350Z,12.30
2018-10-17T21:12:45.975Z,12.30
2018-10-17T21:15:15.599Z,12.20
2018-10-17T21:17:45.263Z,12.10
2018-10-17T21:20:14.979Z,12.10
2018-10-17T21:22:44.561Z,12.00
2018-10-17T21:25:14.209Z,12.00
2018-10-17T21:27:43.844Z,11.90
2018-10-17T21:30:13.474Z,11.90
2018-10-17T21:32:43.086Z,11.80
2018-10-17T21:35:12.713Z,11.80
2018-10-17T21:37:42.350Z,11.70
2018-10-17T21:40:11.997Z,11.70
2018-10-17T21:42:41.692Z,11.70
2018-10-17T21:45:11.420Z,11.70
2018-10-17T21:47:41.050Z,11.60
2018-10-17T21:50:10.705Z,11.60
2018-10-17T21:52:40.362Z,11.70
2018-10-17T21:55:10.002Z,11.70
2018-10-17T21:57:39.635Z,11.60
2018-10-17T22:00:10.571Z,11.60
2018-10-17T22:02:40.542Z,11.60
2018-10-17T22:05:10.929Z,11.60
2018-10-17T22:07:40.576Z,11.60
2018-10-17T22:10:10.330Z,11.60
2018-10-17T22:12:40.008Z,11.60
2018-10-17T22:15:10.373Z,11.60
2018-10-17T22:19:59.711Z,11.60
2018-10-17T22:22:29.338Z,11.50
2018-10-17T22:24:58.999Z,11.50
2018-10-17T22:27:28.626Z,11.50
2018-10-17T22:32:27.396Z,11.50
2018-10-17T22:34:57.169Z,11.40
2018-10-17T22:37:26.838Z,11.30
2018-10-17T22:39:56.918Z,11.40
2018-10-17T22:42:26.547Z,11.30
2018-10-17T22:44:56.177Z,11.30
2018-10-17T22:47:25.805Z,11.30
2018-10-17T22:49:55.523Z,11.20
2018-10-17T22:52:25.165Z,11.20
2018-10-17T22:54:54.790Z,11.10
2018-10-17T22:57:24.437Z,11.10
2018-10-17T22:59:54.072Z,11.10
2018-10-17T23:02:23.701Z,11.00
2018-10-17T23:04:53.322Z,11.00
2018-10-17T23:07:23.081Z,11.00
2018-10-17T23:09:52.887Z,11.00
2018-10-17T23:12:22.552Z,10.90
2018-10-17T23:14:53.081Z,10.90
2018-10-17T23:17:22.816Z,10.80
2018-10-17T23:19:52.448Z,10.80
2018-10-17T23:22:22.052Z,10.70
2018-10-17T23:24:51.754Z,10.70
2018-10-17T23:27:21.423Z,10.70
2018-10-17T23:29:51.054Z,10.60
2018-10-17T23:32:20.712Z,10.60
2018-10-17T23:34:50.350Z,10.60
2018-10-17T23:37:20.151Z,10.60
2018-10-17T23:39:49.796Z,10.60
2018-10-17T23:42:19.455Z,10.50
2018-10-17T23:44:49.077Z,10.50
2018-10-17T23:47:18.733Z,10.50
2018-10-17T23:49:49.171Z,10.50
2018-10-17T23:52:19.117Z,10.40
2018-10-17T23:54:48.740Z,10.40
2018-10-17T23:57:18.381Z,10.40
2018-10-17T23:59:48.029Z,10.40
